createdAt,value
2022-10-17T00:01:06.373Z,78.45
2022-10-17T00:03:34.438Z,78.35
2022-10-17T00:06:06.371Z,78.45
2022-10-17T00:08:34.044Z,78.59
2022-10-17T00:11:04.028Z,78.43
2022-10-17T00:16:02.850Z,79.26
2022-10-17T00:18:30.573Z,79.21
2022-10-17T00:20:58.325Z,79.23
2022-10-17T00:23:27.468Z,79.49
2022-10-17T00:26:01.961Z,79.26
2022-10-17T00:28:30.239Z,79.23
2022-10-17T00:30:58.778Z,79.17
2022-10-17T00:33:28.056Z,79.10
2022-10-17T00:36:05.408Z,79.12
2022-10-17T00:38:33.207Z,78.84
2022-10-17T00:41:00.937Z,78.78
2022-10-17T00:43:32.641Z,78.89
2022-10-17T00:46:00.283Z,79.04
2022-10-17T00:48:31.640Z,79.03
2022-10-17T00:51:03.157Z,79.31
2022-10-17T00:53:30.888Z,79.53
2022-10-17T00:56:00.966Z,79.60
2022-10-17T00:58:29.740Z,79.98
2022-10-17T01:00:57.470Z,80.00
2022-10-17T01:03:25.161Z,79.67
2022-10-17T01:05:54.230Z,79.66
2022-10-17T01:08:22.007Z,79.60
2022-10-17T01:10:55.269Z,79.52
2022-10-17T01:13:26.403Z,79.60
2022-10-17T01:16:03.420Z,79.34
2022-10-17T01:18:40.659Z,79.29
2022-10-17T01:21:34.089Z,79.99
2022-10-17T01:24:28.288Z,79.93
2022-10-17T01:27:09.483Z,80.21
2022-10-17T01:29:48.610Z,80.02
2022-10-17T01:32:19.910Z,79.82
2022-10-17T01:34:55.224Z,80.09
2022-10-17T01:37:29.042Z,80.27
2022-10-17T01:40:02.593Z,80.05
2022-10-17T01:42:34.958Z,79.81
2022-10-17T01:45:08.852Z,79.99
2022-10-17T01:47:38.894Z,80.00
2022-10-17T01:50:11.503Z,80.29
2022-10-17T01:52:44.917Z,80.41
2022-10-17T01:55:16.382Z,80.52
2022-10-17T01:57:47.605Z,80.40
2022-10-17T02:00:18.192Z,80.16
2022-10-17T02:02:49.586Z,80.31
2022-10-17T02:05:18.330Z,80.59
2022-10-17T02:07:46.127Z,80.76
2022-10-17T02:10:31.418Z,80.70
2022-10-17T02:13:05.100Z,81.11
2022-10-17T02:15:54.885Z,80.74
2022-10-17T02:18:36.294Z,81.22
2022-10-17T02:21:08.551Z,81.38
2022-10-17T02:23:39.501Z,81.53
2022-10-17T02:26:10.682Z,81.59
2022-10-17T02:28:43.088Z,82.49
2022-10-17T02:31:15.985Z,82.68
2022-10-17T02:33:48.169Z,83.26
2022-10-17T02:36:20.233Z,82.59
2022-10-17T02:38:48.310Z,82.43
2022-10-17T02:41:18.229Z,82.73
2022-10-17T02:43:47.914Z,83.55
2022-10-17T02:46:20.712Z,83.47
2022-10-17T02:48:51.697Z,84.36
2022-10-17T02:51:28.744Z,83.82
2022-10-17T02:54:00.280Z,82.82
2022-10-17T02:56:28.488Z,83.93
2022-10-17T02:58:58.701Z,83.25
2022-10-17T03:01:26.648Z,82.76
2022-10-17T03:04:07.518Z,82.83
2022-10-17T03:06:35.266Z,82.71
2022-10-17T03:09:04.019Z,83.33
2022-10-17T03:11:31.727Z,83.38
2022-10-17T03:13:59.451Z,83.86
2022-10-17T03:16:27.136Z,84.11
2022-10-17T03:18:54.827Z,83.86
2022-10-17T03:21:23.957Z,83.46
2022-10-17T03:23:51.649Z,84.07
2022-10-17T03:26:19.292Z,83.52
2022-10-17T03:28:49.553Z,83.52
2022-10-17T03:31:19.725Z,83.05
2022-10-17T03:33:47.420Z,83.28
2022-10-17T03:36:16.773Z,83.65
2022-10-17T03:38:47.001Z,83.89
2022-10-17T03:41:14.986Z,84.14
2022-10-17T03:43:42.665Z,83.67
2022-10-17T03:46:10.438Z,83.49
2022-10-17T03:48:38.365Z,83.16
2022-10-17T03:51:08.257Z,82.80
2022-10-17T03:53:36.247Z,82.65
2022-10-17T03:56:12.016Z,82.58
2022-10-17T03:58:40.150Z,82.47
2022-10-17T04:01:08.751Z,82.89
2022-10-17T04:03:36.583Z,82.80
2022-10-17T04:06:05.496Z,82.52
2022-10-17T04:08:34.045Z,82.31
2022-10-17T04:11:02.181Z,83.01
2022-10-17T04:13:31.842Z,82.65
2022-10-17T04:16:01.724Z,82.68
2022-10-17T04:18:30.073Z,82.86
2022-10-17T04:20:57.902Z,82.65
2022-10-17T04:23:27.036Z,82.67
2022-10-17T04:25:56.814Z,82.88
2022-10-17T04:28:24.738Z,82.72
2022-10-17T04:30:58.597Z,82.57
2022-10-17T04:33:26.257Z,82.14
2022-10-17T04:35:58.474Z,82.45
2022-10-17T04:38:28.467Z,82.83
2022-10-17T04:40:58.196Z,83.06
2022-10-17T04:43:26.325Z,83.49
2022-10-17T04:45:54.014Z,83.47
2022-10-17T04:48:23.234Z,83.47
2022-10-17T04:50:57.121Z,83.56
2022-10-17T04:53:25.305Z,83.04
2022-10-17T04:55:52.995Z,83.17
2022-10-17T04:58:21.155Z,83.60
2022-10-17T05:00:48.865Z,83.14
2022-10-17T05:03:16.759Z,83.38
2022-10-17T05:05:45.909Z,83.63
2022-10-17T05:08:13.977Z,84.40
2022-10-17T05:10:43.172Z,85.30
2022-10-17T05:13:11.553Z,85.20
2022-10-17T05:15:39.709Z,85.40
2022-10-17T05:18:07.720Z,86.84
2022-10-17T05:20:35.418Z,87.15
2022-10-17T05:23:04.558Z,86.90
2022-10-17T05:25:32.245Z,87.80
2022-10-17T05:27:59.964Z,88.00
2022-10-17T05:30:27.825Z,86.93
2022-10-17T05:32:55.773Z,86.24
2022-10-17T05:35:23.665Z,86.58
2022-10-17T05:37:51.392Z,87.97
2022-10-17T05:40:20.540Z,88.47
2022-10-17T05:42:48.593Z,89.08
2022-10-17T05:45:17.025Z,89.40
2022-10-17T05:47:44.747Z,89.28
2022-10-17T05:50:12.417Z,90.42
2022-10-17T05:52:41.942Z,90.88
2022-10-17T05:55:11.725Z,91.20
2022-10-17T05:57:40.731Z,91.46
2022-10-17T06:00:09.797Z,91.45
2022-10-17T06:02:37.505Z,91.24
2022-10-17T06:05:05.497Z,91.61
2022-10-17T06:07:33.286Z,90.40
2022-10-17T06:10:00.949Z,90.50
2022-10-17T06:12:30.823Z,90.07
2022-10-17T06:15:00.124Z,89.39
2022-10-17T06:17:30.266Z,88.36
2022-10-17T06:19:58.025Z,87.57
2022-10-17T06:22:25.917Z,87.02
2022-10-17T06:24:53.675Z,88.09
2022-10-17T06:27:21.736Z,87.22
2022-10-17T06:29:51.102Z,87.12
2022-10-17T06:32:20.109Z,86.89
2022-10-17T06:34:47.795Z,86.93
2022-10-17T06:37:15.457Z,86.92
2022-10-17T06:39:43.165Z,86.52
2022-10-17T06:42:10.916Z,86.79
2022-10-17T06:44:39.897Z,86.31
2022-10-17T06:47:07.644Z,85.95
2022-10-17T06:49:36.658Z,87.42
2022-10-17T06:52:04.431Z,89.08
2022-10-17T06:54:32.417Z,89.20
2022-10-17T06:57:00.090Z,91.25
2022-10-17T06:59:30.476Z,91.53
2022-10-17T07:01:58.178Z,92.49
2022-10-17T07:04:25.926Z,94.03
2022-10-17T07:06:55.007Z,94.39
2022-10-17T07:09:24.130Z,94.13
2022-10-17T07:11:51.899Z,94.69
2022-10-17T07:14:20.977Z,94.39
2022-10-17T07:16:49.817Z,94.81
2022-10-17T07:19:17.455Z,96.03
2022-10-17T07:21:45.213Z,96.85
2022-10-17T07:24:14.211Z,97.42
2022-10-17T07:26:41.873Z,97.95
2022-10-17T07:29:10.827Z,99.13
2022-10-17T07:31:38.697Z,99.04
2022-10-17T07:34:06.357Z,99.74
2022-10-17T07:36:34.033Z,99.87
2022-10-17T07:39:01.693Z,100.00
2022-10-17T07:41:31.392Z,99.68
2022-10-17T07:43:59.337Z,99.14
2022-10-17T07:46:27.068Z,99.56
2022-10-17T07:48:54.831Z,99.22
2022-10-17T07:51:22.808Z,100.00
2022-10-17T07:53:50.541Z,99.81
2022-10-17T07:56:18.257Z,100.00
2022-10-17T07:58:48.239Z,100.00
2022-10-17T08:01:16.301Z,100.00
2022-10-17T08:03:44.976Z,100.00
2022-10-17T08:06:13.037Z,100.00
2022-10-17T08:08:40.896Z,100.00
2022-10-17T08:11:10.494Z,100.00
2022-10-17T08:13:38.695Z,100.00
2022-10-17T08:16:10.032Z,100.00
2022-10-17T08:18:37.933Z,100.00
2022-10-17T08:21:08.239Z,100.00
2022-10-17T08:23:36.398Z,100.00
2022-10-17T08:26:05.940Z,100.00
2022-10-17T08:28:35.963Z,100.00
2022-10-17T08:31:05.204Z,100.00
2022-10-17T08:33:34.209Z,100.00
2022-10-17T08:36:02.992Z,100.00
2022-10-17T08:38:35.097Z,100.00
2022-10-17T08:41:06.502Z,100.00
2022-10-17T08:43:45.537Z,100.00
2022-10-17T08:48:49.205Z,100.00
2022-10-17T08:51:19.419Z,100.00
2022-10-17T08:53:50.833Z,100.00
2022-10-17T08:56:25.159Z,100.00
2022-10-17T08:59:12.463Z,100.00
2022-10-17T09:01:44.709Z,100.00
2022-10-17T09:04:33.059Z,100.00
2022-10-17T09:07:06.682Z,100.00
2022-10-17T09:09:41.390Z,100.00
2022-10-17T09:12:16.457Z,100.00
2022-10-17T09:14:55.026Z,100.00
2022-10-17T09:17:31.977Z,100.00
2022-10-17T09:20:05.269Z,100.00
2022-10-17T09:22:37.709Z,100.00
2022-10-17T09:25:07.521Z,100.00
2022-10-17T09:27:37.701Z,100.00
2022-10-17T09:30:33.487Z,99.98
2022-10-17T09:33:28.366Z,100.00
2022-10-17T09:36:10.570Z,100.00
2022-10-17T09:38:41.652Z,99.74
2022-10-17T09:41:43.047Z,99.33
2022-10-17T09:44:15.588Z,99.10
2022-10-17T09:46:45.869Z,98.86
2022-10-17T09:49:18.223Z,99.03
2022-10-17T09:51:47.303Z,98.97
2022-10-17T09:54:21.089Z,99.04
2022-10-17T09:56:58.129Z,98.94
2022-10-17T09:59:32.290Z,98.84
2022-10-17T10:02:10.420Z,98.87
2022-10-17T10:04:59.655Z,98.93
2022-10-17T10:07:29.486Z,98.77
2022-10-17T10:09:58.124Z,98.29
2022-10-17T10:12:27.177Z,97.73
2022-10-17T10:14:55.494Z,98.02
2022-10-17T10:17:35.605Z,98.29
2022-10-17T10:20:05.190Z,97.50
2022-10-17T10:22:34.187Z,96.84
2022-10-17T10:25:09.272Z,97.36
2022-10-17T10:27:37.525Z,97.09
2022-10-17T10:30:06.159Z,97.01
2022-10-17T10:32:36.035Z,97.24
2022-10-17T10:35:07.501Z,97.19
2022-10-17T10:37:39.208Z,97.16
2022-10-17T10:40:08.709Z,97.11
2022-10-17T10:42:38.287Z,97.46
2022-10-17T10:45:42.947Z,96.71
2022-10-17T10:48:18.524Z,96.36
2022-10-17T10:50:47.594Z,96.24
2022-10-17T10:53:34.795Z,96.48
2022-10-17T10:56:06.528Z,96.77
2022-10-17T10:58:42.134Z,96.23
2022-10-17T11:01:17.258Z,96.24
2022-10-17T11:03:54.628Z,96.73
2022-10-17T11:06:26.616Z,95.76
2022-10-17T11:09:06.579Z,95.69
2022-10-17T11:11:38.984Z,95.90
2022-10-17T11:14:13.817Z,95.56
2022-10-17T11:16:46.066Z,96.04
2022-10-17T11:19:18.128Z,95.81
2022-10-17T11:21:48.801Z,96.16
2022-10-17T11:24:23.864Z,96.20
2022-10-17T11:26:55.897Z,96.37
2022-10-17T11:29:27.420Z,95.79
2022-10-17T11:31:56.573Z,95.79
2022-10-17T11:34:27.299Z,96.37
2022-10-17T11:36:58.953Z,96.71
2022-10-17T11:39:32.629Z,96.38
2022-10-17T11:42:04.329Z,96.16
2022-10-17T11:44:35.529Z,95.27
2022-10-17T11:47:06.870Z,95.72
2022-10-17T11:49:40.598Z,95.27
2022-10-17T11:52:44.033Z,94.50
2022-10-17T11:55:15.146Z,95.13
2022-10-17T11:57:53.730Z,94.69
2022-10-17T12:00:50.584Z,94.51
2022-10-17T12:03:26.870Z,94.78
2022-10-17T12:05:58.861Z,94.39
2022-10-17T12:08:31.422Z,94.81
2022-10-17T12:11:04.140Z,95.08
2022-10-17T12:13:51.942Z,95.33
2022-10-17T12:16:44.481Z,95.49
2022-10-17T12:19:30.630Z,95.42
2022-10-17T12:22:00.639Z,95.74
2022-10-17T12:24:35.871Z,95.28
2022-10-17T12:27:24.308Z,95.53
2022-10-17T12:29:59.835Z,95.39
2022-10-17T12:32:30.261Z,96.67
2022-10-17T12:35:04.977Z,96.59
2022-10-17T12:38:29.525Z,95.64
2022-10-17T12:41:07.699Z,96.18
2022-10-17T12:46:42.392Z,96.08
2022-10-17T12:49:36.675Z,95.56
2022-10-17T12:52:17.449Z,96.11
2022-10-17T12:55:00.374Z,96.01
2022-10-17T12:57:38.556Z,95.86
2022-10-17T13:00:16.944Z,95.68
2022-10-17T13:02:45.583Z,96.21
2022-10-17T13:05:16.992Z,96.20
2022-10-17T13:07:46.048Z,96.02
2022-10-17T13:13:05.624Z,95.46
2022-10-17T13:15:35.290Z,95.76
2022-10-17T13:18:03.021Z,95.17
2022-10-17T13:20:32.118Z,95.28
2022-10-17T13:23:00.652Z,95.43
2022-10-17T13:25:29.160Z,95.38
2022-10-17T13:28:08.981Z,95.30
2022-10-17T13:30:38.195Z,95.53
2022-10-17T13:33:19.749Z,95.29
2022-10-17T13:35:59.958Z,95.24
2022-10-17T13:38:32.236Z,95.29
2022-10-17T13:41:16.562Z,94.84
2022-10-17T13:43:48.157Z,95.45
2022-10-17T13:46:37.319Z,95.19
2022-10-17T13:49:12.594Z,95.18
2022-10-17T13:51:44.535Z,94.73
2022-10-17T13:54:36.125Z,94.61
2022-10-17T13:57:05.593Z,94.38
2022-10-17T13:59:37.581Z,94.20
2022-10-17T14:02:12.441Z,94.24
2022-10-17T14:05:04.084Z,94.37
2022-10-17T14:07:46.124Z,94.51
2022-10-17T14:10:21.585Z,94.77
2022-10-17T14:12:51.157Z,94.79
2022-10-17T14:15:19.712Z,94.59
2022-10-17T14:17:55.518Z,95.13
2022-10-17T14:20:57.584Z,94.99
2022-10-17T14:23:47.459Z,95.10
2022-10-17T14:26:17.038Z,95.66
2022-10-17T14:28:46.540Z,95.60
2022-10-17T14:31:27.051Z,96.35
2022-10-17T14:33:56.667Z,96.75
2022-10-17T14:36:41.776Z,97.35
2022-10-17T14:39:19.733Z,97.05
2022-10-17T14:41:47.734Z,96.70
2022-10-17T14:44:20.657Z,96.93
2022-10-17T14:46:51.280Z,96.80
2022-10-17T14:49:27.049Z,97.33
2022-10-17T14:52:25.021Z,97.25
2022-10-17T14:54:53.183Z,97.63
2022-10-17T14:57:25.157Z,97.69
2022-10-17T14:59:54.634Z,97.76
2022-10-17T15:02:23.805Z,97.38
2022-10-17T15:04:52.992Z,97.28
2022-10-17T15:07:22.066Z,97.60
2022-10-17T15:09:51.963Z,97.54
2022-10-17T15:12:21.194Z,97.48
2022-10-17T15:14:49.424Z,97.58
2022-10-17T15:17:20.658Z,97.75
2022-10-17T15:19:48.551Z,98.10
2022-10-17T15:22:18.129Z,98.27
2022-10-17T15:24:46.757Z,97.93
2022-10-17T15:27:17.270Z,98.11
2022-10-17T15:29:45.413Z,98.62
2022-10-17T15:32:13.450Z,99.00
2022-10-17T15:34:41.292Z,98.87
2022-10-17T15:37:17.798Z,99.22
2022-10-17T15:39:47.941Z,99.69
2022-10-17T15:42:15.605Z,99.64
2022-10-17T15:44:44.416Z,99.21
2022-10-17T15:47:20.044Z,99.81
2022-10-17T15:49:47.728Z,99.71
2022-10-17T15:52:17.300Z,100.00
2022-10-17T15:54:44.997Z,99.95
2022-10-17T15:57:18.561Z,99.98
2022-10-17T15:59:47.057Z,99.68
2022-10-17T16:02:15.641Z,99.96
2022-10-17T16:04:43.695Z,99.71
2022-10-17T16:07:11.808Z,100.00
2022-10-17T16:09:41.297Z,99.57
2022-10-17T16:12:14.112Z,99.64
2022-10-17T16:14:42.028Z,99.79
2022-10-17T16:17:11.169Z,99.94
2022-10-17T16:19:38.841Z,99.89
2022-10-17T16:22:06.805Z,100.00
2022-10-17T16:24:34.493Z,100.00
2022-10-17T16:27:03.497Z,99.95
2022-10-17T16:29:31.154Z,100.00
2022-10-17T16:31:58.833Z,99.81
2022-10-17T16:34:26.621Z,99.89
2022-10-17T16:36:54.276Z,99.73
2022-10-17T16:39:22.197Z,99.69
2022-10-17T16:41:52.532Z,100.00
2022-10-17T16:44:23.824Z,99.39
2022-10-17T16:46:51.499Z,100.00
2022-10-17T16:49:19.146Z,99.77
2022-10-17T16:51:46.830Z,99.66
2022-10-17T16:54:14.518Z,98.78
2022-10-17T16:56:42.493Z,99.67
2022-10-17T16:59:10.592Z,99.09
2022-10-17T17:01:39.572Z,99.11
2022-10-17T17:04:08.995Z,99.47
2022-10-17T17:06:37.917Z,99.07
2022-10-17T17:09:05.639Z,100.00
2022-10-17T17:11:33.324Z,100.00
2022-10-17T17:14:02.296Z,99.75
2022-10-17T17:16:31.532Z,99.21
2022-10-17T17:19:02.736Z,99.49
2022-10-17T17:21:31.464Z,99.46
2022-10-17T17:24:00.177Z,99.86
2022-10-17T17:26:32.164Z,100.00
2022-10-17T17:29:01.134Z,99.34
2022-10-17T17:31:30.906Z,98.88
2022-10-17T17:34:00.224Z,98.82
2022-10-17T17:36:32.411Z,98.79
2022-10-17T17:39:02.989Z,98.36
2022-10-17T17:41:31.049Z,99.36
2022-10-17T17:43:58.730Z,98.55
2022-10-17T17:46:26.875Z,98.19
2022-10-17T17:48:55.667Z,98.49
2022-10-17T17:51:28.313Z,98.82
2022-10-17T17:53:57.360Z,98.72
2022-10-17T17:56:26.509Z,98.88
2022-10-17T17:58:56.330Z,99.00
2022-10-17T18:01:26.053Z,98.80
2022-10-17T18:03:55.066Z,98.35
2022-10-17T18:06:24.337Z,99.16
2022-10-17T18:08:54.709Z,98.91
2022-10-17T18:11:22.663Z,99.15
2022-10-17T18:13:54.677Z,98.60
2022-10-17T18:16:22.434Z,99.52
2022-10-17T18:18:50.380Z,98.56
2022-10-17T18:21:18.224Z,98.18
2022-10-17T18:23:48.400Z,98.45
2022-10-17T18:26:16.719Z,98.59
2022-10-17T18:28:45.171Z,98.33
2022-10-17T18:31:15.122Z,99.03
2022-10-17T18:33:44.514Z,99.62
2022-10-17T18:36:14.450Z,98.17
2022-10-17T18:38:42.555Z,97.94
2022-10-17T18:41:13.951Z,97.68
2022-10-17T18:43:43.623Z,98.94
2022-10-17T18:46:14.825Z,98.64
2022-10-17T18:48:44.222Z,97.81
2022-10-17T18:51:12.076Z,97.79
2022-10-17T18:53:40.780Z,98.42
2022-10-17T18:56:08.773Z,98.21
2022-10-17T18:58:38.986Z,99.06
2022-10-17T19:01:07.827Z,98.95
2022-10-17T19:03:35.648Z,98.76
2022-10-17T19:06:03.959Z,98.93
2022-10-17T19:08:31.627Z,99.60
2022-10-17T19:11:05.781Z,100.00
2022-10-17T19:13:33.539Z,99.00
2022-10-17T19:16:05.877Z,99.18
2022-10-17T19:18:34.281Z,99.57
2022-10-17T19:21:03.221Z,100.00
2022-10-17T19:23:31.106Z,100.00
2022-10-17T19:26:03.084Z,99.82
2022-10-17T19:28:30.819Z,100.00
2022-10-17T19:30:58.518Z,99.97
2022-10-17T19:35:57.677Z,98.12
2022-10-17T19:38:25.524Z,98.26
2022-10-17T19:40:53.814Z,98.53
2022-10-17T19:43:21.786Z,97.15
2022-10-17T19:45:56.340Z,97.40
2022-10-17T19:48:24.222Z,98.60
2022-10-17T19:50:53.748Z,96.97
2022-10-17T19:53:24.569Z,97.01
2022-10-17T19:55:52.469Z,98.12
2022-10-17T19:58:20.698Z,97.32
2022-10-17T20:00:48.757Z,97.02
2022-10-17T20:03:16.424Z,97.85
2022-10-17T20:05:44.306Z,98.14
2022-10-17T20:08:13.416Z,98.02
2022-10-17T20:10:41.122Z,97.72
2022-10-17T20:13:08.985Z,97.01
2022-10-17T20:15:36.970Z,97.41
2022-10-17T20:18:05.361Z,96.52
2022-10-17T20:20:34.983Z,96.30
2022-10-17T20:23:03.480Z,96.23
2022-10-17T20:25:33.253Z,96.83
2022-10-17T20:28:03.029Z,97.11
2022-10-17T20:30:30.895Z,97.03
2022-10-17T20:32:58.554Z,97.30
2022-10-17T20:35:26.245Z,95.99
2022-10-17T20:37:54.011Z,97.18
2022-10-17T20:40:36.890Z,96.78
2022-10-17T20:43:07.504Z,96.26
2022-10-17T20:45:50.563Z,97.16
2022-10-17T20:48:19.777Z,97.05
2022-10-17T20:50:47.436Z,97.49
2022-10-17T20:53:36.023Z,97.77
2022-10-17T20:56:04.044Z,97.58
2022-10-17T20:58:33.186Z,96.20
2022-10-17T21:01:06.091Z,96.17
2022-10-17T21:03:35.816Z,96.34
2022-10-17T21:06:05.533Z,96.85
2022-10-17T21:08:33.617Z,96.11
2022-10-17T21:11:12.097Z,95.19
2022-10-17T21:13:41.449Z,95.27
2022-10-17T21:16:11.302Z,95.75
2022-10-17T21:18:39.483Z,95.00
2022-10-17T21:21:11.550Z,96.04
2022-10-17T21:23:39.759Z,94.96
2022-10-17T21:26:12.974Z,95.03
2022-10-17T21:28:43.253Z,94.62
2022-10-17T21:31:13.053Z,94.57
2022-10-17T21:33:41.501Z,94.82
2022-10-17T21:36:10.132Z,94.72
2022-10-17T21:38:38.597Z,94.70
2022-10-17T21:41:07.775Z,94.67
2022-10-17T21:43:36.510Z,94.68
2022-10-17T21:46:07.432Z,94.11
2022-10-17T21:48:35.594Z,94.48
2022-10-17T21:51:05.549Z,94.15
2022-10-17T21:53:35.077Z,94.33
2022-10-17T21:56:05.977Z,94.20
2022-10-17T21:58:33.880Z,94.62
2022-10-17T22:01:07.726Z,94.30
2022-10-17T22:03:35.566Z,94.15
2022-10-17T22:06:12.942Z,94.96
2022-10-17T22:08:51.608Z,94.84
2022-10-17T22:11:20.841Z,94.00
2022-10-17T22:13:48.669Z,94.37
2022-10-17T22:16:17.711Z,94.46
2022-10-17T22:18:45.444Z,94.26
2022-10-17T22:21:14.316Z,93.87
2022-10-17T22:23:42.832Z,94.09
2022-10-17T22:26:11.227Z,94.11
2022-10-17T22:28:39.523Z,93.95
2022-10-17T22:31:07.786Z,93.65
2022-10-17T22:33:37.729Z,93.46
2022-10-17T22:36:06.268Z,94.54
2022-10-17T22:38:33.976Z,94.71
2022-10-17T22:41:01.704Z,95.11
2022-10-17T22:43:29.581Z,94.85
2022-10-17T22:45:58.285Z,94.44
2022-10-17T22:48:26.749Z,94.50
2022-10-17T22:50:57.115Z,94.03
2022-10-17T22:53:26.452Z,93.93
2022-10-17T22:55:54.477Z,93.59
2022-10-17T22:58:22.619Z,93.90
2022-10-17T23:00:50.788Z,93.61
2022-10-17T23:03:19.381Z,94.22
2022-10-17T23:05:47.252Z,93.98
2022-10-17T23:08:17.718Z,94.07
2022-10-17T23:10:45.433Z,93.19
2022-10-17T23:13:13.348Z,93.64
2022-10-17T23:15:41.108Z,93.59
2022-10-17T23:18:09.673Z,93.07
2022-10-17T23:20:38.386Z,93.39
2022-10-17T23:23:06.271Z,93.32
2022-10-17T23:25:35.516Z,92.83
2022-10-17T23:28:03.373Z,92.62
2022-10-17T23:30:32.735Z,92.55
2022-10-17T23:33:00.424Z,93.03
2022-10-17T23:35:28.108Z,93.15
2022-10-17T23:37:55.782Z,93.01
2022-10-17T23:40:23.809Z,92.96
2022-10-17T23:42:52.833Z,93.36
2022-10-17T23:45:20.606Z,93.15
2022-10-17T23:47:48.300Z,92.75
2022-10-17T23:50:16.329Z,93.40
2022-10-17T23:52:44.106Z,93.60
2022-10-17T23:55:11.826Z,94.46
2022-10-17T23:57:39.521Z,94.16
